Time;durP1;ratioP1;P1;durP2;ratioP2;P2;SDS_P1;SDS_P2;PMS_P1;PMS_P2;Temp;Humidity;BMP_temperature;BMP_pressure;BME280_temperature;BME280_humidity;BME280_pressure;Samples;Min_cycle;Max_cycle;Signal;HPM_P1;HPM_P2
2021/01/30 00:00:49;;;;;;;2.00;0.50;;;8.80;83.40;;;;;;4965789;28;20029;-85
2021/01/30 00:03:15;;;;;;;1.10;0.47;;;8.80;83.10;;;;;;4975110;28;20493;-88
2021/01/30 00:05:41;;;;;;;2.38;0.55;;;8.80;82.80;;;;;;4976023;28;20536;-87
2021/01/30 00:08:08;;;;;;;4.57;0.65;;;8.80;82.80;;;;;;4958040;28;20089;-82
2021/01/30 00:10:34;;;;;;;0.60;0.30;;;8.80;82.40;;;;;;4965944;28;20031;-81
2021/01/30 00:13:00;;;;;;;2.73;0.60;;;8.90;82.30;;;;;;4956756;28;20046;-79
2021/01/30 00:15:28;;;;;;;2.38;0.55;;;8.80;82.30;;;;;;4975094;28;20030;-80
2021/01/30 00:17:55;;;;;;;1.07;0.50;;;8.80;82.60;;;;;;4968164;28;20133;-82
2021/01/30 00:20:32;;;;;;;4.30;0.60;;;8.80;82.60;;;;;;4966782;28;20034;-84
2021/01/30 00:22:58;;;;;;;2.40;0.40;;;8.80;82.70;;;;;;4977880;28;20488;-79
2021/01/30 00:25:27;;;;;;;5.07;0.50;;;8.80;82.90;;;;;;4976696;28;20046;-79
2021/01/30 00:27:54;;;;;;;1.90;0.40;;;8.70;83.10;;;;;;4957152;28;20065;-80
2021/01/30 00:30:22;;;;;;;2.13;1.23;;;8.70;83.40;;;;;;4978994;28;20146;-79
2021/01/30 00:32:49;;;;;;;5.90;0.50;;;8.70;83.80;;;;;;4989169;28;20031;-79
2021/01/30 00:35:16;;;;;;;1.07;0.50;;;8.70;83.60;;;;;;4987342;28;20034;-79
2021/01/30 00:37:42;;;;;;;1.67;0.20;;;8.70;83.60;;;;;;4979492;28;20100;-80
2021/01/30 00:40:08;;;;;;;3.10;0.60;;;8.70;83.60;;;;;;4976204;28;20038;-81
2021/01/30 00:42:34;;;;;;;0.80;0.40;;;8.70;83.00;;;;;;4972240;28;20046;-82
2021/01/30 00:45:00;;;;;;;2.80;0.50;;;8.70;83.20;;;;;;4992545;28;20030;-81
2021/01/30 00:47:25;;;;;;;4.90;0.47;;;8.70;83.00;;;;;;4993613;28;20049;-79
2021/01/30 00:49:51;;;;;;;3.50;0.70;;;8.70;82.70;;;;;;4969838;28;20034;-83
2021/01/30 00:52:18;;;;;;;1.33;0.28;;;8.70;82.50;;;;;;4992929;28;20039;-79
2021/01/30 00:54:44;;;;;;;5.87;0.60;;;8.70;82.30;;;;;;4994259;28;20050;-80
2021/01/30 00:57:10;;;;;;;2.85;0.32;;;8.70;82.90;;;;;;4994846;28;20065;-79
2021/01/30 00:59:36;;;;;;;2.17;0.50;;;8.70;83.00;;;;;;4994722;28;20034;-79
2021/01/30 01:02:02;;;;;;;2.50;0.77;;;8.70;83.00;;;;;;4976279;28;20034;-79
2021/01/30 01:04:28;;;;;;;3.05;0.60;;;8.70;83.30;;;;;;4976080;28;20066;-80
2021/01/30 01:06:54;;;;;;;1.02;0.30;;;8.70;83.10;;;;;;4971700;28;20388;-80
2021/01/30 01:09:20;;;;;;;3.70;0.43;;;8.70;83.00;;;;;;4995660;28;20495;-79
2021/01/30 01:11:48;;;;;;;4.30;0.57;;;8.70;83.10;;;;;;4994606;28;20026;-81
2021/01/30 01:14:14;;;;;;;1.63;0.60;;;8.70;83.80;;;;;;4966763;28;20039;-79
2021/01/30 01:16:40;;;;;;;2.53;0.40;;;8.60;84.20;;;;;;4973822;28;20046;-80
2021/01/30 01:19:06;;;;;;;1.15;0.40;;;8.60;85.00;;;;;;4988777;28;20065;-79
2021/01/30 01:21:32;;;;;;;3.15;0.52;;;8.60;85.60;;;;;;4971027;28;20059;-80
2021/01/30 01:23:58;;;;;;;5.87;0.60;;;8.60;85.80;;;;;;4974450;28;20062;-80
2021/01/30 01:26:24;;;;;;;1.20;0.60;;;8.60;86.30;;;;;;4976314;28;20132;-79
2021/01/30 01:28:49;;;;;;;2.93;0.30;;;8.60;85.70;;;;;;4976023;28;20061;-79
2021/01/30 01:31:16;;;;;;;2.03;0.50;;;8.60;85.50;;;;;;4968938;28;20080;-79
2021/01/30 01:33:42;;;;;;;1.47;0.30;;;8.50;84.80;;;;;;4993283;28;20046;-80
2021/01/30 01:36:09;;;;;;;0.60;0.30;;;8.60;84.90;;;;;;4973198;28;20045;-80
2021/01/30 01:38:34;;;;;;;2.33;0.50;;;8.60;84.70;;;;;;4993460;28;20109;-79
2021/01/30 01:41:01;;;;;;;2.27;0.50;;;8.60;84.40;;;;;;4976427;28;20065;-80
2021/01/30 01:43:28;;;;;;;2.83;0.30;;;8.60;84.30;;;;;;4977136;28;20089;-80
2021/01/30 01:46:13;;;;;;;1.43;0.30;;;8.60;83.80;;;;;;4972892;28;20043;-79
2021/01/30 01:48:59;;;;;;;1.77;0.70;;;8.60;83.50;;;;;;4973369;28;20031;-78
2021/01/30 01:51:30;;;;;;;3.00;0.50;;;8.60;83.40;;;;;;4960989;28;20376;-78
2021/01/30 01:54:01;;;;;;;1.70;0.30;;;8.60;83.50;;;;;;4961175;28;20093;-79
2021/01/30 01:56:29;;;;;;;2.40;0.43;;;8.60;83.30;;;;;;4975745;28;20034;-78
2021/01/30 01:59:01;;;;;;;4.33;0.80;;;8.60;83.40;;;;;;4941483;29;20038;-78
2021/01/30 02:01:30;;;;;;;2.03;0.25;;;8.60;83.30;;;;;;4970148;28;20041;-78
2021/01/30 02:03:57;;;;;;;1.00;0.30;;;8.60;83.20;;;;;;4979546;28;20496;-80
2021/01/30 02:06:23;;;;;;;1.13;0.50;;;8.60;83.20;;;;;;4980564;28;20061;-78
2021/01/30 02:08:50;;;;;;;1.33;0.40;;;8.60;83.20;;;;;;4980242;28;20045;-78
2021/01/30 02:11:15;;;;;;;4.60;0.40;;;8.60;83.20;;;;;;4997161;28;20152;-78
2021/01/30 02:13:54;;;;;;;0.73;0.33;;;8.50;83.10;;;;;;4972755;28;20070;-78
2021/01/30 02:16:44;;;;;;;0.93;0.23;;;8.50;83.60;;;;;;4960586;28;20527;-78
2021/01/30 02:19:47;;;;;;;1.27;0.40;;;8.50;83.60;;;;;;4960111;28;20042;-79
2021/01/30 02:23:14;;;;;;;0.50;0.30;;;8.50;84.20;;;;;;4964453;28;20045;-78
2021/01/30 02:25:58;;;;;;;2.00;0.37;;;8.40;84.50;;;;;;4936579;29;20036;-79
2021/01/30 02:28:46;;;;;;;3.67;0.53;;;8.40;84.50;;;;;;4898703;29;20128;-79
2021/01/30 02:31:20;;;;;;;2.67;0.50;;;8.30;84.60;;;;;;4965973;28;20035;-78
2021/01/30 02:34:24;;;;;;;1.87;0.30;;;8.30;84.40;;;;;;4979695;28;20129;-78
2021/01/30 02:37:08;;;;;;;1.63;0.30;;;8.30;84.60;;;;;;4973801;28;20046;-79
2021/01/30 02:39:55;;;;;;;0.77;0.27;;;8.20;84.50;;;;;;4979648;28;20034;-78
2021/01/30 02:42:32;;;;;;;1.90;0.30;;;8.30;84.70;;;;;;4996509;28;20038;-77
2021/01/30 02:45:11;;;;;;;1.80;0.40;;;8.30;84.60;;;;;;4978553;28;20042;-78
2021/01/30 02:47:40;;;;;;;1.60;0.30;;;8.30;84.90;;;;;;4978913;28;20046;-77
2021/01/30 02:50:17;;;;;;;2.83;0.50;;;8.30;84.90;;;;;;4961561;28;20041;-77
2021/01/30 02:52:46;;;;;;;2.07;0.50;;;8.20;85.30;;;;;;4995889;28;20027;-78
2021/01/30 02:55:15;;;;;;;3.13;0.70;;;8.30;85.40;;;;;;4978507;28;20099;-79
2021/01/30 02:57:43;;;;;;;2.80;0.47;;;8.20;85.60;;;;;;4978870;28;20521;-79
2021/01/30 03:00:12;;;;;;;1.03;0.30;;;8.20;85.90;;;;;;4977674;28;20484;-79
2021/01/30 03:02:38;;;;;;;5.73;0.63;;;8.20;86.20;;;;;;4996294;28;20047;-78
2021/01/30 03:05:06;;;;;;;1.57;0.40;;;8.20;86.60;;;;;;4995541;28;20095;-79
2021/01/30 03:08:02;;;;;;;3.33;0.40;;;8.20;87.00;;;;;;4977772;28;20372;-78
2021/01/30 03:10:44;;;;;;;1.97;0.40;;;8.10;87.60;;;;;;4996139;28;20042;-78
2021/01/30 03:13:17;;;;;;;;;;;8.10;88.00;;;;;;4996093;28;20039;-79
2021/01/30 03:15:48;;;;;;;2.03;0.33;;;8.10;88.80;;;;;;4978955;28;19913;-78
2021/01/30 03:18:17;;;;;;;1.07;0.23;;;8.10;89.30;;;;;;4995600;28;20113;-79
2021/01/30 03:20:45;;;;;;;1.70;0.40;;;8.00;89.50;;;;;;4979042;28;20042;-80
2021/01/30 03:23:12;;;;;;;2.73;0.50;;;8.10;89.70;;;;;;4978477;28;20065;-79
2021/01/30 03:25:40;;;;;;;2.27;0.30;;;8.10;89.80;;;;;;4996007;28;20026;-79
2021/01/30 03:28:05;;;;;;;3.83;0.70;;;8.10;89.90;;;;;;4978389;28;20049;-80
2021/01/30 03:30:32;;;;;;;0.57;0.20;;;8.10;90.10;;;;;;4978279;28;20031;-80
2021/01/30 03:32:58;;;;;;;3.53;0.53;;;8.10;90.10;;;;;;4978209;28;20043;-80
2021/01/30 03:35:24;;;;;;;1.27;0.40;;;8.10;90.20;;;;;;4995428;28;20033;-79
2021/01/30 03:37:50;;;;;;;1.53;0.33;;;8.10;90.20;;;;;;4978057;28;20038;-79
2021/01/30 03:40:17;;;;;;;3.67;0.60;;;8.10;90.20;;;;;;4994471;28;20089;-79
2021/01/30 03:42:42;;;;;;;2.33;0.40;;;8.10;90.20;;;;;;4995118;28;20034;-79
2021/01/30 03:45:12;;;;;;;1.63;0.40;;;8.10;90.20;;;;;;4977588;28;20031;-79
2021/01/30 03:47:37;;;;;;;0.37;0.20;;;8.10;90.20;;;;;;4977825;28;20503;-79
2021/01/30 03:50:05;;;;;;;1.77;0.40;;;8.10;90.30;;;;;;4963280;28;20034;-79
2021/01/30 03:52:31;;;;;;;2.57;0.43;;;8.10;90.20;;;;;;4995270;28;20057;-78
2021/01/30 03:54:57;;;;;;;3.27;0.70;;;8.10;90.20;;;;;;4977145;28;20050;-82
2021/01/30 03:57:22;;;;;;;0.83;0.30;;;8.10;90.20;;;;;;4977315;28;20502;-79
2021/01/30 03:59:51;;;;;;;1.70;0.50;;;8.10;90.20;;;;;;4977369;28;20041;-78
2021/01/30 04:02:17;;;;;;;1.43;0.50;;;8.10;90.00;;;;;;4976185;28;20054;-78
2021/01/30 04:04:46;;;;;;;1.10;0.20;;;8.10;89.40;;;;;;4977999;28;20038;-78
2021/01/30 04:07:13;;;;;;;1.35;0.30;;;8.10;88.90;;;;;;4977203;28;20129;-78
2021/01/30 04:09:38;;;;;;;2.57;0.40;;;8.10;88.90;;;;;;4978053;28;20061;-78
2021/01/30 04:12:05;;;;;;;1.77;0.30;;;8.10;88.60;;;;;;4977565;28;20460;-78
2021/01/30 04:14:32;;;;;;;1.33;0.30;;;8.10;88.50;;;;;;4994898;28;20039;-78
2021/01/30 04:16:58;;;;;;;2.27;0.30;;;8.10;88.10;;;;;;4977429;28;20480;-79
2021/01/30 04:19:24;;;;;;;1.17;0.30;;;8.10;88.10;;;;;;4966273;28;20137;-79
2021/01/30 04:21:50;;;;;;;0.87;0.40;;;8.00;87.90;;;;;;4958922;28;20031;-78
2021/01/30 04:24:16;;;;;;;3.20;0.50;;;8.00;87.80;;;;;;4994326;28;20185;-78
2021/01/30 04:26:46;;;;;;;1.57;0.30;;;8.00;87.30;;;;;;4974499;28;20051;-78
2021/01/30 04:29:12;;;;;;;3.30;0.30;;;8.00;87.10;;;;;;4970120;28;20038;-78
2021/01/30 04:31:38;;;;;;;3.33;0.67;;;8.00;86.90;;;;;;4977952;28;20044;-78
2021/01/30 04:34:03;;;;;;;0.80;0.33;;;8.10;86.20;;;;;;4976676;28;20133;-79
2021/01/30 04:36:29;;;;;;;3.63;0.53;;;8.10;86.00;;;;;;4977346;28;20466;-79
2021/01/30 04:38:54;;;;;;;4.40;0.90;;;8.10;85.70;;;;;;4994614;28;20031;-81
2021/01/30 04:41:23;;;;;;;3.07;0.40;;;8.00;84.90;;;;;;4976723;28;20129;-79
2021/01/30 04:43:57;;;;;;;1.73;0.33;;;8.00;85.20;;;;;;4977371;28;20142;-79
2021/01/30 04:46:43;;;;;;;2.47;0.50;;;8.10;85.40;;;;;;4977442;28;20038;-79
2021/01/30 04:49:11;;;;;;;4.57;0.60;;;8.10;84.80;;;;;;4968599;28;20502;-80
2021/01/30 04:51:56;;;;;;;2.40;0.50;;;8.10;84.20;;;;;;4990699;28;20062;-79
2021/01/30 04:54:30;;;;;;;7.50;0.73;;;8.10;84.40;;;;;;4957793;28;20055;-79
2021/01/30 04:57:34;;;;;;;3.37;0.60;;;8.20;84.40;;;;;;4957284;28;20129;-81
2021/01/30 05:00:23;;;;;;;4.80;0.70;;;8.10;84.30;;;;;;4925546;28;20041;-80
2021/01/30 05:03:13;;;;;;;5.77;0.70;;;8.10;84.20;;;;;;4957125;28;20149;-79
2021/01/30 05:05:40;;;;;;;3.73;0.60;;;8.10;84.20;;;;;;4990301;28;20057;-80
2021/01/30 05:08:11;;;;;;;5.10;0.70;;;8.10;84.10;;;;;;4959940;28;20030;-80
2021/01/30 05:10:56;;;;;;;4.10;0.65;;;8.10;84.30;;;;;;4993982;28;20026;-79
2021/01/30 05:13:34;;;;;;;6.23;0.63;;;8.10;84.10;;;;;;4976956;28;20042;-79
2021/01/30 05:16:11;;;;;;;2.67;0.50;;;8.10;84.30;;;;;;4993493;28;20162;-81
2021/01/30 05:18:45;;;;;;;2.67;0.57;;;8.10;84.10;;;;;;4971315;28;20031;-79
2021/01/30 05:21:15;;;;;;;2.40;0.60;;;8.10;84.20;;;;;;4968763;28;20035;-79
2021/01/30 05:23:44;;;;;;;5.07;0.50;;;8.10;83.70;;;;;;4979404;28;20065;-80
2021/01/30 05:26:22;;;;;;;4.97;0.70;;;8.10;83.10;;;;;;4980118;28;20038;-80
2021/01/30 05:29:06;;;;;;;4.80;0.60;;;8.10;83.30;;;;;;4997844;28;20038;-80
2021/01/30 05:32:10;;;;;;;5.47;0.90;;;8.10;83.50;;;;;;4997706;28;20506;-79
2021/01/30 05:34:56;;;;;;;5.50;0.70;;;8.10;83.00;;;;;;4980400;28;20400;-79
2021/01/30 05:37:45;;;;;;;6.50;0.67;;;8.10;82.90;;;;;;4997104;28;20042;-79
2021/01/30 05:40:20;;;;;;;5.40;1.30;;;8.10;83.20;;;;;;4945362;28;20053;-79
2021/01/30 05:43:05;;;;;;;6.23;0.80;;;8.10;82.70;;;;;;4979988;28;20038;-79
2021/01/30 05:45:44;;;;;;;7.27;0.60;;;8.10;82.40;;;;;;4996292;28;20030;-79
2021/01/30 05:48:13;;;;;;;8.97;0.70;;;8.10;82.50;;;;;;4946809;28;20038;-79
2021/01/30 05:50:59;;;;;;;5.93;0.97;;;8.10;82.80;;;;;;4968688;28;20042;-80
2021/01/30 05:53:27;;;;;;;4.97;0.70;;;8.10;82.80;;;;;;4980240;28;20043;-78
2021/01/30 05:55:55;;;;;;;1.57;0.53;;;8.00;83.00;;;;;;4997242;28;20038;-79
2021/01/30 05:58:23;;;;;;;6.93;0.83;;;8.00;83.00;;;;;;4997270;28;20034;-79
2021/01/30 06:00:49;;;;;;;5.63;0.70;;;8.00;83.30;;;;;;4996597;28;20143;-80
2021/01/30 06:03:18;;;;;;;7.37;0.93;;;8.10;83.30;;;;;;4979255;28;20046;-80
2021/01/30 06:06:06;;;;;;;5.20;1.17;;;8.00;83.10;;;;;;4997481;28;20034;-80
2021/01/30 06:08:32;;;;;;;4.83;0.70;;;8.00;83.50;;;;;;4997060;28;20399;-80
2021/01/30 06:11:14;;;;;;;7.20;1.00;;;8.00;83.10;;;;;;4996308;28;20030;-79
2021/01/30 06:14:01;;;;;;;5.82;0.68;;;8.00;82.80;;;;;;4972555;28;20034;-79
2021/01/30 06:16:40;;;;;;;2.93;0.80;;;8.00;82.70;;;;;;4970331;28;20547;-78
2021/01/30 06:19:15;;;;;;;3.03;0.80;;;8.00;82.60;;;;;;4969390;28;20034;-77
2021/01/30 06:21:42;;;;;;;5.77;0.73;;;8.00;82.80;;;;;;4993497;28;20038;-79
2021/01/30 06:24:10;;;;;;;5.20;1.10;;;8.00;82.40;;;;;;4996302;28;20026;-78
2021/01/30 06:26:41;;;;;;;5.67;0.90;;;8.00;82.20;;;;;;4979195;28;20039;-77
2021/01/30 06:29:21;;;;;;;4.37;0.70;;;8.00;82.40;;;;;;4995750;28;20118;-78
2021/01/30 06:31:47;;;;;;;8.30;0.93;;;8.00;82.40;;;;;;4996682;28;20030;-79
2021/01/30 06:34:22;;;;;;;6.33;1.27;;;8.00;82.40;;;;;;4978848;28;20522;-79
2021/01/30 06:36:50;;;;;;;5.67;0.90;;;8.00;82.20;;;;;;4996821;28;20034;-81
2021/01/30 06:39:27;;;;;;;8.27;1.20;;;8.00;82.10;;;;;;4978858;28;20092;-79
2021/01/30 06:41:56;;;;;;;8.03;0.90;;;8.00;81.60;;;;;;4978988;28;20402;-79
2021/01/30 06:44:29;;;;;;;5.97;0.80;;;8.00;81.30;;;;;;4996072;28;20084;-78
2021/01/30 06:47:15;;;;;;;5.47;0.80;;;8.00;81.60;;;;;;4996028;28;20042;-80
2021/01/30 06:49:44;;;;;;;3.73;0.87;;;8.00;81.40;;;;;;4965430;28;20062;-79
2021/01/30 06:52:21;;;;;;;6.30;0.90;;;8.00;81.20;;;;;;4995756;28;20046;-77
2021/01/30 06:55:06;;;;;;;5.23;0.93;;;8.00;81.20;;;;;;4975523;28;20141;-80
2021/01/30 06:57:50;;;;;;;6.47;1.00;;;8.00;81.30;;;;;;4975496;28;20467;-79
2021/01/30 07:00:17;;;;;;;10.63;2.27;;;8.10;80.70;;;;;;4975485;28;20042;-79
2021/01/30 07:02:46;;;;;;;7.90;1.40;;;8.10;80.90;;;;;;4976069;28;20043;-80
2021/01/30 07:05:32;;;;;;;4.17;0.87;;;8.10;81.20;;;;;;4974939;28;20045;-79
2021/01/30 07:08:27;;;;;;;10.23;1.40;;;8.10;81.20;;;;;;4976159;28;20043;-79
2021/01/30 07:11:02;;;;;;;6.77;1.10;;;8.10;81.20;;;;;;4975489;28;20047;-78
2021/01/30 07:13:55;;;;;;;7.90;1.20;;;8.10;81.20;;;;;;4976020;28;20035;-79
2021/01/30 07:16:26;;;;;;;7.30;1.40;;;8.10;81.10;;;;;;4948882;28;20382;-78
2021/01/30 07:19:22;;;;;;;6.37;1.17;;;8.20;81.40;;;;;;4968540;28;20133;-78
2021/01/30 07:21:53;;;;;;;4.93;1.20;;;8.20;81.20;;;;;;4973273;28;20042;-78
2021/01/30 07:24:31;;;;;;;5.77;0.90;;;8.20;81.40;;;;;;4974658;28;20550;-78
2021/01/30 07:27:25;;;;;;;7.37;1.17;;;8.20;81.50;;;;;;4974771;28;20377;-78
2021/01/30 07:30:07;;;;;;;5.57;1.03;;;8.20;81.50;;;;;;4976254;28;20038;-78
2021/01/30 07:32:38;;;;;;;5.40;0.90;;;8.20;81.60;;;;;;4975456;28;20042;-79
2021/01/30 07:35:19;;;;;;;6.53;1.30;;;8.20;81.40;;;;;;4974712;28;20448;-78
2021/01/30 07:37:57;;;;;;;5.53;0.80;;;8.20;81.40;;;;;;4975940;28;20133;-78
2021/01/30 07:40:32;;;;;;;5.67;1.20;;;8.30;81.40;;;;;;4975915;28;20039;-78
2021/01/30 07:43:01;;;;;;;5.70;1.10;;;8.30;81.40;;;;;;4974452;28;20042;-79
2021/01/30 07:45:33;;;;;;;7.13;1.60;;;8.30;81.50;;;;;;4975057;28;20113;-78
2021/01/30 07:48:39;;;;;;;5.50;1.10;;;8.30;81.40;;;;;;4973441;28;20042;-78
2021/01/30 07:51:10;;;;;;;8.90;1.13;;;8.40;81.40;;;;;;4957547;28;20050;-79
2021/01/30 07:53:37;;;;;;;4.78;1.38;;;8.40;81.10;;;;;;4978054;28;20487;-79
2021/01/30 07:56:15;;;;;;;7.63;1.17;;;8.40;81.10;;;;;;4994481;28;20030;-79
2021/01/30 07:59:00;;;;;;;5.67;0.87;;;8.40;81.20;;;;;;4977964;28;20039;-77
2021/01/30 08:01:31;;;;;;;8.57;1.47;;;8.40;81.10;;;;;;4995259;28;20376;-78
2021/01/30 08:04:07;;;;;;;13.53;1.43;;;8.40;80.90;;;;;;4994296;28;20043;-78
2021/01/30 08:06:48;;;;;;;7.93;1.13;;;8.40;81.00;;;;;;4994641;28;20054;-78
2021/01/30 08:09:48;;;;;;;5.57;1.33;;;8.40;81.10;;;;;;4976745;28;20031;-78
2021/01/30 08:12:28;;;;;;;8.60;1.50;;;8.50;81.20;;;;;;4969664;28;20046;-77
2021/01/30 08:15:04;;;;;;;11.57;1.30;;;8.50;80.80;;;;;;4977104;28;20038;-78
2021/01/30 08:17:43;;;;;;;7.43;1.40;;;8.50;80.90;;;;;;4994830;28;20038;-78
2021/01/30 08:20:21;;;;;;;9.30;1.47;;;8.50;80.80;;;;;;4976497;28;20036;-77
2021/01/30 08:23:01;;;;;;;9.33;1.30;;;8.50;80.80;;;;;;4977172;28;20041;-78
2021/01/30 08:25:48;;;;;;;6.97;1.37;;;8.60;80.80;;;;;;4994892;28;20030;-78
2021/01/30 08:28:45;;;;;;;8.17;1.40;;;8.60;80.90;;;;;;4973332;28;20162;-80
2021/01/30 08:31:31;;;;;;;8.80;1.70;;;8.60;81.00;;;;;;4993041;28;20118;-81
2021/01/30 08:34:23;;;;;;;6.13;1.10;;;8.60;80.90;;;;;;4976799;28;20042;-81
2021/01/30 08:36:54;;;;;;;6.55;1.35;;;8.60;80.80;;;;;;4991636;28;20038;-80
2021/01/30 08:39:34;;;;;;;12.90;1.33;;;8.60;81.10;;;;;;4993795;28;20030;-79
2021/01/30 08:42:16;;;;;;;7.33;1.60;;;8.60;81.00;;;;;;4993517;28;20060;-79
2021/01/30 08:44:44;;;;;;;12.40;1.70;;;8.70;82.10;;;;;;4976535;28;20046;-80
2021/01/30 08:47:13;;;;;;;12.33;1.50;;;8.70;81.30;;;;;;4947789;28;20051;-78
2021/01/30 08:49:39;;;;;;;6.57;1.20;;;8.70;81.30;;;;;;4955832;28;20069;-78
2021/01/30 08:52:14;;;;;;;8.13;1.47;;;8.70;81.10;;;;;;4976037;28;20026;-79
2021/01/30 08:54:42;;;;;;;9.93;1.37;;;8.70;81.30;;;;;;4993457;28;20133;-78
2021/01/30 08:57:46;;;;;;;8.47;1.47;;;8.60;81.60;;;;;;4975160;28;20077;-78
2021/01/30 09:00:25;;;;;;;8.70;1.40;;;8.60;81.90;;;;;;4937136;29;20040;-78
2021/01/30 09:02:58;;;;;;;7.28;1.55;;;8.60;81.90;;;;;;4943399;29;20050;-79
2021/01/30 09:05:26;;;;;;;10.98;1.80;;;8.60;81.80;;;;;;4931631;29;20123;-78
2021/01/30 09:07:59;;;;;;;12.82;1.40;;;8.70;82.10;;;;;;4936584;29;20055;-78
2021/01/30 09:10:37;;;;;;;10.80;1.53;;;8.60;82.10;;;;;;4930657;29;20039;-78
2021/01/30 09:13:19;;;;;;;12.03;1.80;;;8.60;82.10;;;;;;4928281;29;20505;-79
2021/01/30 09:15:44;;;;;;;;;;;8.70;82.10;;;;;;4923005;29;20168;-79
2021/01/30 09:18:21;;;;;;;10.10;1.55;;;8.70;82.00;;;;;;4949160;29;19906;-78
2021/01/30 09:21:10;;;;;;;10.82;1.95;;;8.80;81.90;;;;;;4942521;29;20031;-79
2021/01/30 09:24:07;;;;;;;13.10;1.80;;;8.80;81.90;;;;;;4918272;29;20514;-77
2021/01/30 09:26:50;;;;;;;9.30;1.60;;;8.80;82.00;;;;;;4927676;29;20130;-77
2021/01/30 09:29:38;;;;;;;8.33;1.47;;;8.80;82.10;;;;;;4939818;29;20083;-77
2021/01/30 09:32:05;;;;;;;9.47;1.50;;;8.80;82.30;;;;;;4948885;28;20030;-77
2021/01/30 09:34:45;;;;;;;12.85;1.65;;;8.80;82.50;;;;;;4948325;28;20027;-78
2021/01/30 09:37:27;;;;;;;8.57;1.10;;;8.80;82.70;;;;;;4976783;28;20034;-78
2021/01/30 09:39:59;;;;;;;12.95;1.83;;;8.80;83.00;;;;;;4972232;28;20475;-78
2021/01/30 09:42:26;;;;;;;10.75;1.50;;;8.90;82.90;;;;;;4963246;28;20038;-78
2021/01/30 09:45:22;;;;;;;6.32;1.20;;;8.80;83.30;;;;;;4976351;28;20049;-81
2021/01/30 09:47:50;;;;;;;7.60;1.42;;;8.80;82.60;;;;;;4981076;28;20046;-81
2021/01/30 09:50:28;;;;;;;10.10;1.50;;;8.80;82.60;;;;;;4975693;28;20455;-77
2021/01/30 09:53:04;;;;;;;7.23;1.23;;;8.80;82.70;;;;;;4973492;28;20033;-78
2021/01/30 09:55:30;;;;;;;7.93;1.30;;;8.80;82.90;;;;;;4975573;28;20159;-77
2021/01/30 09:58:17;;;;;;;10.37;1.50;;;8.80;82.00;;;;;;4976369;28;20668;-78
2021/01/30 10:00:45;;;;;;;7.63;1.38;;;8.80;82.00;;;;;;4970839;28;20027;-76
2021/01/30 10:03:35;;;;;;;6.88;1.77;;;8.80;82.00;;;;;;4951925;28;20093;-77
2021/01/30 10:06:13;;;;;;;10.10;1.38;;;8.80;82.50;;;;;;4960748;28;20145;-78
2021/01/30 10:08:39;;;;;;;6.65;1.67;;;8.80;83.30;;;;;;4952348;28;20067;-77
2021/01/30 10:11:12;;;;;;;11.82;2.15;;;8.80;83.40;;;;;;4963845;28;20031;-76
2021/01/30 10:13:44;;;;;;;10.20;2.10;;;8.80;84.00;;;;;;4954958;28;20165;-80
2021/01/30 10:16:20;;;;;;;8.38;1.52;;;8.90;84.00;;;;;;4954550;28;20537;-77
2021/01/30 10:19:07;;;;;;;10.50;1.65;;;8.90;84.40;;;;;;4972226;28;20109;-77
2021/01/30 10:21:42;;;;;;;7.90;2.00;;;8.90;83.50;;;;;;4948623;29;20032;-82
2021/01/30 10:24:22;;;;;;;6.70;1.00;;;8.80;84.30;;;;;;4965868;28;20032;-82
2021/01/30 10:26:51;;;;;;;8.52;1.23;;;8.90;84.20;;;;;;4980030;28;20038;-80
2021/01/30 10:29:20;;;;;;;7.82;1.27;;;8.80;84.80;;;;;;4957882;28;20038;-78
2021/01/30 10:31:51;;;;;;;10.13;2.20;;;8.90;84.70;;;;;;4960276;28;20031;-80
2021/01/30 10:34:20;;;;;;;9.90;1.77;;;8.90;84.70;;;;;;4981305;28;20289;-76
2021/01/30 10:36:55;;;;;;;11.60;2.00;;;8.80;84.80;;;;;;4966990;28;20085;-78
2021/01/30 10:39:23;;;;;;;12.95;2.53;;;8.80;85.10;;;;;;4972681;28;20126;-76
2021/01/30 10:41:50;;;;;;;10.50;1.73;;;8.80;85.50;;;;;;4959944;28;20031;-77
2021/01/30 10:44:28;;;;;;;7.55;1.65;;;8.90;85.90;;;;;;4970122;28;20027;-79
2021/01/30 10:46:57;;;;;;;9.93;1.30;;;8.90;86.00;;;;;;4996199;28;20034;-81
2021/01/30 10:49:30;;;;;;;10.07;1.80;;;8.90;85.50;;;;;;4984660;28;20042;-82
2021/01/30 10:52:03;;;;;;;15.00;1.48;;;8.90;85.90;;;;;;4994142;28;20088;-80
2021/01/30 10:54:30;;;;;;;7.97;1.67;;;8.90;86.00;;;;;;4937235;29;20058;-81
2021/01/30 10:57:18;;;;;;;9.50;1.45;;;9.00;86.20;;;;;;4978432;28;20057;-81
2021/01/30 10:59:56;;;;;;;7.90;1.50;;;9.00;86.10;;;;;;4953813;28;20118;-82
2021/01/30 11:02:41;;;;;;;9.80;1.70;;;9.00;86.20;;;;;;4960173;28;20090;-78
2021/01/30 11:05:19;;;;;;;5.88;1.20;;;9.10;85.60;;;;;;4959558;28;20094;-78
2021/01/30 11:07:55;;;;;;;11.38;1.95;;;9.10;84.60;;;;;;4967350;28;20053;-80
2021/01/30 11:10:23;;;;;;;7.47;1.67;;;9.10;85.20;;;;;;4947101;28;20035;-77
2021/01/30 11:12:50;;;;;;;8.60;1.45;;;9.10;85.30;;;;;;4959853;28;20469;-84
2021/01/30 11:15:22;;;;;;;12.35;1.63;;;9.10;85.80;;;;;;4970262;28;20035;-78
2021/01/30 11:17:48;;;;;;;;;;;9.20;85.90;;;;;;4958635;28;20071;-81
2021/01/30 11:20:37;;;;;;;8.32;1.23;;;9.20;85.70;;;;;;4938965;29;19914;-78
2021/01/30 11:23:05;;;;;;;12.95;1.60;;;9.20;85.60;;;;;;4939141;29;20031;-80
2021/01/30 11:25:36;;;;;;;10.52;2.00;;;9.10;86.20;;;;;;4968980;28;20109;-80
2021/01/30 11:28:02;;;;;;;14.05;1.35;;;9.10;86.70;;;;;;4964874;28;20520;-87
2021/01/30 11:30:28;;;;;;;7.97;1.70;;;9.10;87.30;;;;;;4942051;29;20078;-83
2021/01/30 11:32:56;;;;;;;9.00;1.80;;;9.00;87.30;;;;;;4940322;29;20035;-78
2021/01/30 11:35:41;;;;;;;8.60;1.90;;;9.10;88.20;;;;;;4939301;29;20094;-79
2021/01/30 11:38:12;;;;;;;7.30;1.50;;;9.10;87.90;;;;;;4946051;28;20034;-78
2021/01/30 11:40:38;;;;;;;13.80;2.00;;;9.20;87.60;;;;;;4978800;28;20035;-79
2021/01/30 11:43:04;;;;;;;6.25;1.70;;;9.20;87.60;;;;;;4977231;28;20618;-78
2021/01/30 11:45:30;;;;;;;8.00;2.35;;;9.20;87.40;;;;;;4978225;28;20041;-78
2021/01/30 11:47:55;;;;;;;7.68;1.60;;;9.20;87.40;;;;;;4978353;28;20399;-78
2021/01/30 11:50:21;;;;;;;7.95;1.70;;;9.30;87.80;;;;;;4939090;29;20355;-78
2021/01/30 11:52:47;;;;;;;13.02;1.85;;;9.30;88.30;;;;;;4952562;28;20377;-80
2021/01/30 11:55:14;;;;;;;10.88;1.88;;;9.20;88.50;;;;;;4947888;29;20106;-79
2021/01/30 11:57:39;;;;;;;28.85;10.98;;;9.30;88.40;;;;;;4980529;28;20495;-80
2021/01/30 12:00:08;;;;;;;17.77;6.75;;;9.30;89.00;;;;;;4951252;28;20126;-79
2021/01/30 12:02:40;;;;;;;11.40;3.10;;;9.30;88.80;;;;;;4961364;28;20043;-76
2021/01/30 12:05:09;;;;;;;14.07;2.10;;;9.40;88.40;;;;;;4975907;28;20114;-84
2021/01/30 12:07:35;;;;;;;7.88;1.75;;;9.50;88.30;;;;;;4994077;28;20480;-77
2021/01/30 12:10:00;;;;;;;11.55;2.03;;;9.50;87.70;;;;;;4976814;28;20042;-78
2021/01/30 12:12:27;;;;;;;9.73;1.67;;;9.60;87.10;;;;;;4960248;28;20041;-77
2021/01/30 12:14:53;;;;;;;9.05;1.30;;;9.60;86.90;;;;;;4950617;28;20464;-78
2021/01/30 12:17:32;;;;;;;6.70;1.77;;;9.60;87.40;;;;;;4938353;29;20039;-80
2021/01/30 12:19:58;;;;;;;10.45;1.70;;;9.70;87.50;;;;;;4974588;28;20030;-77
2021/01/30 12:22:23;;;;;;;9.00;2.17;;;9.60;86.90;;;;;;4968381;28;20039;-80
2021/01/30 12:24:49;;;;;;;8.10;1.45;;;9.70;87.10;;;;;;4957368;28;20494;-78
2021/01/30 12:27:18;;;;;;;4.10;1.50;;;9.80;87.40;;;;;;4953885;28;20053;-76
2021/01/30 12:29:46;;;;;;;5.07;1.33;;;9.80;87.40;;;;;;4959699;28;20035;-76
2021/01/30 12:32:13;;;;;;;7.35;1.50;;;9.80;88.00;;;;;;4956401;28;20046;-77
2021/01/30 12:34:39;;;;;;;8.38;1.15;;;9.80;87.40;;;;;;4974089;28;20523;-78
2021/01/30 12:37:06;;;;;;;7.13;1.23;;;9.80;87.30;;;;;;4975276;28;20031;-79
2021/01/30 12:39:32;;;;;;;7.95;1.10;;;9.80;87.60;;;;;;4975755;28;20031;-79
2021/01/30 12:41:58;;;;;;;8.98;1.10;;;9.70;87.80;;;;;;4984182;28;20026;-79
2021/01/30 12:44:24;;;;;;;6.18;1.13;;;9.70;87.60;;;;;;4965694;28;20050;-84
2021/01/30 12:46:51;;;;;;;7.75;1.13;;;9.70;87.80;;;;;;4955522;28;20058;-80
2021/01/30 12:49:17;;;;;;;7.15;1.38;;;9.70;87.80;;;;;;4975224;28;20494;-79
2021/01/30 12:51:44;;;;;;;12.25;1.38;;;9.60;87.80;;;;;;4954113;28;20043;-76
2021/01/30 12:54:10;;;;;;;8.20;1.75;;;9.60;88.20;;;;;;4958996;28;20074;-74
2021/01/30 12:56:36;;;;;;;5.50;1.35;;;9.60;88.50;;;;;;4973252;28;20031;-79
2021/01/30 12:59:03;;;;;;;6.85;1.23;;;9.50;88.70;;;;;;4974503;28;20228;-87
2021/01/30 13:01:31;;;;;;;7.90;1.33;;;9.50;88.90;;;;;;4973489;28;20129;-77
2021/01/30 13:03:56;;;;;;;5.07;1.02;;;9.50;89.10;;;;;;4974560;28;20051;-76
2021/01/30 13:06:22;;;;;;;7.50;1.52;;;9.40;89.40;;;;;;4971511;28;20179;-80
2021/01/30 13:08:50;;;;;;;6.80;1.50;;;9.40;89.70;;;;;;4955593;28;20455;-77
2021/01/30 13:11:16;;;;;;;8.65;1.67;;;9.40;89.80;;;;;;4953805;29;20082;-79
2021/01/30 13:13:46;;;;;;;5.63;1.38;;;9.40;89.90;;;;;;4941964;28;20183;-77
2021/01/30 13:16:13;;;;;;;7.78;1.35;;;9.50;89.90;;;;;;4946567;28;20031;-78
2021/01/30 13:18:39;;;;;;;7.43;1.33;;;9.50;89.70;;;;;;4967652;28;20397;-76
2021/01/30 13:21:06;;;;;;;7.00;1.48;;;9.50;89.70;;;;;;4953043;28;20499;-76
2021/01/30 13:23:36;;;;;;;7.93;1.33;;;9.40;90.00;;;;;;4947255;28;20045;-75
2021/01/30 13:26:04;;;;;;;6.28;0.80;;;9.40;90.00;;;;;;4950382;28;20065;-83